createdAt,value
2023-01-18T00:00:20.916Z,59.72
2023-01-18T00:02:47.442Z,65.45
2023-01-18T00:05:14.471Z,63.60
2023-01-18T00:07:41.015Z,60.78
2023-01-18T00:10:07.979Z,67.18
2023-01-18T00:12:34.411Z,64.47
2023-01-18T00:15:00.894Z,57.72
2023-01-18T00:17:27.332Z,62.85
2023-01-18T00:19:53.761Z,65.47
2023-01-18T00:22:20.301Z,61.47
2023-01-18T00:24:46.798Z,69.38
2023-01-18T00:27:13.312Z,71.45
2023-01-18T00:29:39.769Z,68.50
2023-01-18T00:32:06.471Z,62.55
2023-01-18T00:34:32.969Z,57.50
2023-01-18T00:36:59.519Z,58.28
2023-01-18T00:39:26.019Z,56.10
2023-01-18T00:42:10.867Z,55.05
2023-01-18T00:44:37.355Z,53.45
2023-01-18T00:47:03.803Z,61.08
2023-01-18T00:49:30.235Z,56.70
2023-01-18T00:51:58.745Z,57.97
2023-01-18T00:54:25.404Z,55.70
2023-01-18T00:56:51.828Z,51.15
2023-01-18T00:59:18.373Z,52.83
2023-01-18T01:01:45.509Z,53.08
2023-01-18T01:04:30.638Z,56.85
2023-01-18T01:06:57.118Z,53.28
2023-01-18T01:09:29.203Z,56.55
2023-01-18T01:12:16.389Z,58.50
2023-01-18T01:15:04.869Z,58.05
2023-01-18T01:17:51.848Z,63.78
2023-01-18T01:20:37.200Z,58.70
2023-01-18T01:23:34.081Z,58.78
2023-01-18T01:26:13.672Z,56.88
2023-01-18T01:28:40.081Z,60.63
2023-01-18T01:31:09.676Z,60.65
2023-01-18T01:33:37.071Z,62.85
2023-01-18T01:36:07.384Z,65.55
2023-01-18T01:38:34.554Z,60.95
2023-01-18T01:41:07.813Z,58.97
2023-01-18T01:43:43.480Z,59.47
2023-01-18T01:46:25.279Z,57.25
2023-01-18T01:49:02.313Z,64.50
2023-01-18T01:51:29.125Z,56.97
2023-01-18T01:54:00.566Z,59.70
2023-01-18T01:56:27.581Z,61.75
2023-01-18T01:58:58.693Z,55.92
2023-01-18T02:01:27.345Z,56.88
2023-01-18T02:03:57.775Z,59.58
2023-01-18T02:06:31.485Z,58.42
2023-01-18T02:09:04.177Z,59.72
2023-01-18T02:11:30.685Z,66.53
2023-01-18T02:14:02.539Z,64.70
2023-01-18T02:16:45.321Z,56.63
2023-01-18T02:19:46.717Z,63.03
2023-01-18T02:22:58.308Z,61.28
2023-01-18T02:25:57.108Z,63.35
2023-01-18T02:28:33.762Z,60.10
2023-01-18T02:31:13.599Z,61.55
2023-01-18T02:34:04.040Z,56.45
2023-01-18T02:37:07.616Z,59.50
2023-01-18T02:40:00.046Z,65.97
2023-01-18T02:42:46.755Z,63.13
2023-01-18T02:45:51.763Z,65.35
2023-01-18T02:48:23.654Z,58.65
2023-01-18T02:50:50.489Z,59.72
2023-01-18T02:53:17.627Z,57.33
2023-01-18T02:55:59.072Z,55.00
2023-01-18T02:58:40.510Z,55.20
2023-01-18T03:01:28.995Z,55.15
2023-01-18T03:04:01.086Z,58.25
2023-01-18T03:06:29.635Z,57.00
2023-01-18T03:08:58.701Z,55.40
2023-01-18T03:11:56.491Z,54.33
2023-01-18T03:14:36.690Z,60.50
2023-01-18T03:17:21.471Z,56.60
2023-01-18T03:20:09.075Z,50.88
2023-01-18T03:22:54.203Z,60.28
2023-01-18T03:25:26.003Z,57.95
2023-01-18T03:28:13.262Z,59.10
2023-01-18T03:30:59.636Z,53.83
2023-01-18T03:33:43.646Z,60.28
2023-01-18T03:36:24.221Z,63.53
2023-01-18T03:38:56.894Z,53.88
2023-01-18T03:41:29.181Z,55.40
2023-01-18T03:43:59.974Z,61.95
2023-01-18T03:46:30.897Z,54.90
2023-01-18T03:48:57.893Z,53.55
2023-01-18T03:51:36.283Z,57.50
2023-01-18T03:54:09.517Z,59.63
2023-01-18T03:56:47.672Z,54.67
2023-01-18T03:59:14.359Z,58.72
2023-01-18T04:01:41.484Z,53.25
2023-01-18T04:04:07.982Z,57.22
2023-01-18T04:06:34.553Z,61.28
2023-01-18T04:09:01.168Z,54.50
2023-01-18T04:11:27.664Z,54.53
2023-01-18T04:13:54.657Z,55.88
2023-01-18T04:16:21.626Z,55.63
2023-01-18T04:18:48.246Z,52.67
2023-01-18T04:21:14.719Z,57.30
2023-01-18T04:23:41.238Z,56.20
2023-01-18T04:26:07.704Z,56.47
2023-01-18T04:28:34.593Z,57.38
2023-01-18T04:31:01.189Z,57.42
2023-01-18T04:33:27.815Z,56.85
2023-01-18T04:35:54.538Z,52.63
2023-01-18T04:38:21.069Z,66.07
2023-01-18T04:40:47.548Z,64.75
2023-01-18T04:43:14.090Z,63.72
2023-01-18T04:45:40.717Z,55.80
2023-01-18T04:48:07.179Z,61.45
2023-01-18T04:50:33.689Z,54.65
2023-01-18T04:53:00.618Z,92.97
2023-01-18T04:55:27.325Z,67.15
2023-01-18T04:57:56.697Z,67.25
2023-01-18T05:00:24.100Z,60.33
2023-01-18T05:02:51.083Z,59.40
2023-01-18T05:05:18.593Z,64.65
2023-01-18T05:07:45.058Z,55.92
2023-01-18T05:10:12.100Z,58.45
2023-01-18T05:12:38.580Z,58.75
2023-01-18T05:15:05.956Z,54.85
2023-01-18T05:17:34.611Z,56.30
2023-01-18T05:20:02.360Z,50.47
2023-01-18T05:22:29.168Z,52.80
2023-01-18T05:24:55.735Z,50.50
2023-01-18T05:27:22.229Z,50.92
2023-01-18T05:29:48.754Z,49.85
2023-01-18T05:32:15.314Z,51.22
2023-01-18T05:34:42.310Z,59.80
2023-01-18T05:37:08.829Z,51.90
2023-01-18T05:39:35.374Z,58.53
2023-01-18T05:42:02.175Z,51.15
2023-01-18T05:44:28.889Z,53.50
2023-01-18T05:46:55.330Z,57.13
2023-01-18T05:49:22.126Z,55.92
2023-01-18T05:51:48.599Z,52.50
2023-01-18T05:54:15.165Z,55.75
2023-01-18T05:56:42.210Z,48.92
2023-01-18T05:59:09.232Z,50.15
2023-01-18T06:01:35.838Z,56.03
2023-01-18T06:04:02.357Z,52.60
2023-01-18T06:06:28.859Z,56.45
2023-01-18T06:08:55.432Z,51.92
2023-01-18T06:11:21.899Z,54.58
2023-01-18T06:13:48.448Z,54.60
2023-01-18T06:16:14.929Z,62.35
2023-01-18T06:18:41.488Z,56.00
2023-01-18T06:21:08.176Z,57.60
2023-01-18T06:23:35.313Z,59.05
2023-01-18T06:26:01.823Z,54.45
2023-01-18T06:28:30.538Z,62.65
2023-01-18T06:30:57.463Z,55.80
2023-01-18T06:33:24.660Z,58.42
2023-01-18T06:35:52.161Z,55.95
2023-01-18T06:38:18.683Z,58.92
2023-01-18T06:40:45.200Z,58.22
2023-01-18T06:43:14.058Z,56.75
2023-01-18T06:45:41.216Z,52.55
2023-01-18T06:48:07.791Z,54.72
2023-01-18T06:50:34.250Z,57.22
2023-01-18T06:53:01.206Z,51.10
2023-01-18T06:55:27.829Z,53.78
2023-01-18T06:57:55.021Z,49.22
2023-01-18T07:00:22.643Z,52.60
2023-01-18T07:02:51.413Z,50.33
2023-01-18T07:05:17.944Z,49.45
2023-01-18T07:07:45.721Z,54.78
2023-01-18T07:10:14.289Z,56.83
2023-01-18T07:12:42.190Z,50.88
2023-01-18T07:15:20.855Z,48.28
2023-01-18T07:17:50.238Z,51.42
2023-01-18T07:20:17.113Z,53.50
2023-01-18T07:22:43.599Z,53.67
2023-01-18T07:25:13.241Z,53.00
2023-01-18T07:27:43.130Z,50.35
2023-01-18T07:30:12.984Z,47.95
2023-01-18T07:32:44.786Z,49.08
2023-01-18T07:35:11.235Z,49.97
2023-01-18T07:37:38.611Z,49.13
2023-01-18T07:40:05.694Z,51.92
2023-01-18T07:42:32.221Z,49.22
2023-01-18T07:44:58.640Z,55.78
2023-01-18T07:47:25.075Z,52.28
2023-01-18T07:49:51.534Z,55.55
2023-01-18T07:52:18.016Z,47.67
2023-01-18T07:54:44.529Z,43.88
2023-01-18T07:57:11.013Z,53.40
2023-01-18T07:59:39.843Z,50.97
2023-01-18T08:02:08.707Z,54.05
2023-01-18T08:04:35.202Z,56.83
2023-01-18T08:07:01.694Z,50.38
2023-01-18T08:09:28.277Z,56.15
2023-01-18T08:11:55.482Z,47.20
2023-01-18T08:14:21.975Z,48.92
2023-01-18T08:16:48.477Z,47.35
2023-01-18T08:19:16.619Z,52.45
2023-01-18T08:21:44.216Z,52.28
2023-01-18T08:24:10.690Z,58.63
2023-01-18T08:26:37.895Z,53.20
2023-01-18T08:29:04.513Z,61.13
2023-01-18T08:31:31.053Z,56.53
2023-01-18T08:33:57.525Z,62.42
2023-01-18T08:36:25.523Z,48.85
2023-01-18T08:38:55.248Z,53.50
2023-01-18T08:41:22.675Z,61.75
2023-01-18T08:43:50.858Z,54.70
2023-01-18T08:46:17.666Z,47.47
2023-01-18T08:48:44.091Z,52.63
2023-01-18T08:51:10.703Z,47.17
2023-01-18T08:53:37.174Z,56.45
2023-01-18T08:56:06.360Z,51.45
2023-01-18T08:58:33.610Z,49.65
2023-01-18T09:01:00.274Z,46.17
2023-01-18T09:03:26.820Z,53.72
2023-01-18T09:05:53.262Z,59.40
2023-01-18T09:08:19.747Z,52.38
2023-01-18T09:10:46.260Z,58.85
2023-01-18T09:13:12.793Z,51.33
2023-01-18T09:15:39.491Z,57.65
2023-01-18T09:18:07.630Z,50.10
2023-01-18T09:20:36.184Z,57.85
2023-01-18T09:23:10.195Z,55.28
2023-01-18T09:25:37.100Z,54.13
2023-01-18T09:28:05.858Z,48.80
2023-01-18T09:30:33.233Z,48.45
2023-01-18T09:33:00.444Z,53.60
2023-01-18T09:35:27.173Z,60.53
2023-01-18T09:37:54.571Z,51.75
2023-01-18T09:40:24.816Z,51.40
2023-01-18T09:42:52.702Z,55.90
2023-01-18T09:45:35.279Z,59.65
2023-01-18T09:48:16.893Z,70.93
2023-01-18T09:50:43.896Z,60.17
2023-01-18T09:53:19.578Z,57.63
2023-01-18T09:55:54.018Z,58.80
2023-01-18T09:58:32.966Z,54.83
2023-01-18T10:01:05.503Z,53.33
2023-01-18T10:03:46.843Z,61.80
2023-01-18T10:06:21.616Z,69.18
2023-01-18T10:09:26.326Z,61.97
2023-01-18T10:12:00.635Z,65.18
2023-01-18T10:14:39.259Z,59.80
2023-01-18T10:17:14.059Z,62.70
2023-01-18T10:19:41.290Z,58.83
2023-01-18T10:22:33.451Z,54.47
2023-01-18T10:25:06.416Z,54.72
2023-01-18T10:27:41.467Z,56.53
2023-01-18T10:30:36.041Z,59.22
2023-01-18T10:33:14.401Z,59.33
2023-01-18T10:35:47.965Z,49.47
2023-01-18T10:38:19.356Z,46.22
2023-01-18T10:40:57.148Z,48.72
2023-01-18T10:43:25.620Z,43.65
2023-01-18T10:45:53.385Z,40.78
2023-01-18T10:48:34.758Z,48.15
2023-01-18T10:51:05.826Z,21.55
2023-01-18T10:53:37.915Z,26.63
2023-01-18T10:56:10.356Z,22.05
2023-01-18T10:58:43.373Z,29.13
2023-01-18T11:01:53.100Z,38.38
2023-01-18T11:04:29.552Z,27.70
2023-01-18T11:07:01.446Z,21.83
2023-01-18T11:09:49.509Z,29.58
2023-01-18T11:12:37.568Z,23.20
2023-01-18T11:15:24.748Z,19.25
2023-01-18T11:17:57.872Z,28.30
2023-01-18T11:20:35.393Z,19.85
2023-01-18T11:23:09.354Z,29.45
2023-01-18T11:25:50.321Z,20.42
2023-01-18T11:28:21.635Z,23.15
2023-01-18T11:30:55.642Z,32.40
2023-01-18T11:33:24.836Z,16.83
2023-01-18T11:35:59.081Z,21.55
2023-01-18T11:38:33.873Z,10.57
2023-01-18T11:41:21.389Z,14.10
2023-01-18T11:43:59.827Z,30.45
2023-01-18T11:46:44.905Z,22.40
2023-01-18T11:49:42.920Z,12.88
2023-01-18T11:52:15.732Z,12.18
2023-01-18T11:54:49.590Z,18.02
2023-01-18T11:57:16.115Z,24.02
2023-01-18T11:59:45.691Z,13.50
2023-01-18T12:02:56.615Z,13.10
2023-01-18T12:05:47.855Z,21.33
2023-01-18T12:08:26.918Z,17.08
2023-01-18T12:10:53.340Z,19.88
2023-01-18T12:13:32.743Z,13.45
2023-01-18T12:16:50.489Z,9.05
2023-01-18T12:19:31.865Z,10.70
2023-01-18T12:22:05.844Z,13.05
2023-01-18T12:25:04.484Z,7.80
2023-01-18T12:27:36.790Z,16.05
2023-01-18T12:30:14.054Z,20.95
2023-01-18T12:32:55.117Z,18.50
2023-01-18T12:35:33.812Z,21.73
2023-01-18T12:38:09.282Z,17.88
2023-01-18T12:40:38.644Z,9.98
2023-01-18T12:43:31.370Z,12.18
2023-01-18T12:46:05.199Z,22.75
2023-01-18T12:48:55.156Z,21.60
2023-01-18T12:51:24.360Z,10.02
2023-01-18T12:53:56.092Z,7.82
2023-01-18T12:56:31.301Z,12.02
2023-01-18T12:59:01.604Z,20.63
2023-01-18T13:01:34.846Z,20.73
2023-01-18T13:04:07.240Z,19.27
2023-01-18T13:06:35.675Z,17.98
2023-01-18T13:09:14.793Z,7.88
2023-01-18T13:11:43.297Z,11.77
2023-01-18T13:14:37.208Z,15.63
2023-01-18T13:17:11.775Z,17.80
2023-01-18T13:19:46.908Z,19.73
2023-01-18T13:22:22.289Z,21.23
2023-01-18T13:25:19.778Z,14.05
2023-01-18T13:28:03.837Z,11.15
2023-01-18T13:30:53.176Z,20.65
2023-01-18T13:33:25.480Z,14.38
2023-01-18T13:35:54.311Z,21.98
2023-01-18T13:38:40.253Z,21.90
2023-01-18T13:41:13.176Z,11.48
2023-01-18T13:43:42.803Z,10.40
2023-01-18T13:46:09.876Z,17.63
2023-01-18T13:48:41.782Z,10.77
2023-01-18T13:51:09.339Z,12.15
2023-01-18T13:53:50.142Z,15.57
2023-01-18T13:56:29.901Z,10.25
2023-01-18T13:59:19.199Z,15.40
2023-01-18T14:01:48.935Z,13.70
2023-01-18T14:04:29.990Z,12.10
2023-01-18T14:07:00.496Z,8.80
2023-01-18T14:09:48.646Z,18.50
2023-01-18T14:12:15.769Z,18.20
2023-01-18T14:15:02.569Z,14.25
2023-01-18T14:17:33.619Z,19.35
2023-01-18T14:20:26.469Z,6.25
2023-01-18T14:23:14.438Z,6.47
2023-01-18T14:26:06.999Z,17.58
2023-01-18T14:28:36.949Z,13.70
2023-01-18T14:31:13.464Z,9.70
2023-01-18T14:33:41.559Z,16.83
2023-01-18T14:36:20.399Z,12.18
2023-01-18T14:38:47.009Z,12.15
2023-01-18T14:41:17.588Z,12.85
2023-01-18T14:43:46.404Z,14.35
2023-01-18T14:46:26.472Z,14.02
2023-01-18T14:48:57.118Z,16.48
2023-01-18T14:51:25.797Z,11.93
2023-01-18T14:54:03.969Z,14.63
2023-01-18T14:56:34.427Z,13.20
2023-01-18T14:59:16.318Z,15.68
2023-01-18T15:01:52.268Z,20.42
2023-01-18T15:04:24.229Z,10.57
2023-01-18T15:07:03.755Z,14.80
2023-01-18T15:09:37.083Z,22.90
2023-01-18T15:12:08.499Z,11.82
2023-01-18T15:14:38.252Z,11.60
2023-01-18T15:17:21.900Z,22.98
2023-01-18T15:19:55.398Z,4.28
2023-01-18T15:22:29.291Z,15.38
2023-01-18T15:24:58.044Z,3.42
2023-01-18T15:27:24.629Z,13.50
2023-01-18T15:29:53.835Z,10.60
2023-01-18T15:32:29.228Z,10.73
2023-01-18T15:34:58.382Z,13.75
2023-01-18T15:37:27.787Z,8.98
2023-01-18T15:39:57.713Z,7.57
2023-01-18T15:42:29.619Z,7.57
2023-01-18T15:44:58.315Z,13.93
2023-01-18T15:47:24.782Z,24.98
2023-01-18T15:49:53.794Z,16.23
2023-01-18T15:52:45.254Z,10.82
2023-01-18T15:55:30.411Z,21.13
2023-01-18T15:58:01.522Z,16.38
2023-01-18T16:00:29.838Z,20.25
2023-01-18T16:02:56.933Z,25.27
2023-01-18T16:05:25.765Z,21.98
2023-01-18T16:08:16.135Z,13.52
2023-01-18T16:10:52.395Z,22.58
2023-01-18T16:13:37.440Z,2.70
2023-01-18T16:16:06.622Z,16.42
2023-01-18T16:18:33.294Z,15.20
2023-01-18T16:21:01.390Z,26.23
2023-01-18T16:23:29.432Z,18.42
2023-01-18T16:26:04.395Z,15.30
2023-01-18T16:28:30.952Z,24.05
2023-01-18T16:30:59.685Z,22.75
2023-01-18T16:33:26.288Z,17.75
2023-01-18T16:35:53.009Z,22.73
2023-01-18T16:38:23.760Z,15.73
2023-01-18T16:40:50.987Z,21.15
2023-01-18T16:43:20.383Z,15.70
2023-01-18T16:45:50.001Z,21.17
2023-01-18T16:48:19.020Z,15.02
2023-01-18T16:50:46.389Z,16.55
2023-01-18T16:53:13.513Z,15.57
2023-01-18T16:55:40.466Z,19.42
2023-01-18T16:58:07.471Z,13.15
2023-01-18T17:00:48.199Z,15.93
2023-01-18T17:03:16.472Z,18.02
2023-01-18T17:05:43.099Z,11.73
2023-01-18T17:08:13.743Z,12.43
2023-01-18T17:10:42.594Z,14.45
2023-01-18T17:13:09.659Z,12.00
2023-01-18T17:15:36.293Z,7.25
2023-01-18T17:18:04.576Z,9.43
2023-01-18T17:20:31.631Z,17.30
2023-01-18T17:22:58.304Z,14.38
2023-01-18T17:25:25.216Z,15.70
2023-01-18T17:27:52.223Z,13.07
2023-01-18T17:30:21.899Z,22.17
2023-01-18T17:32:49.416Z,19.17
2023-01-18T17:35:18.240Z,17.77
2023-01-18T17:37:45.513Z,11.68
2023-01-18T17:40:22.713Z,8.30
2023-01-18T17:42:51.821Z,10.55
2023-01-18T17:45:18.489Z,21.02
2023-01-18T17:47:44.941Z,13.30
2023-01-18T17:50:19.032Z,10.30
2023-01-18T17:52:45.505Z,7.43
2023-01-18T17:55:13.575Z,13.55
2023-01-18T17:57:40.688Z,13.75
2023-01-18T18:00:11.736Z,18.95
2023-01-18T18:02:38.267Z,14.13
2023-01-18T18:05:05.167Z,17.90
2023-01-18T18:07:31.742Z,16.83
2023-01-18T18:10:01.115Z,5.80
2023-01-18T18:12:29.464Z,16.15
2023-01-18T18:14:56.153Z,12.38
2023-01-18T18:17:25.074Z,13.85
2023-01-18T18:19:51.635Z,12.80
2023-01-18T18:22:21.561Z,8.82
2023-01-18T18:24:49.221Z,15.23
2023-01-18T18:27:16.713Z,14.48
2023-01-18T18:29:44.794Z,11.35
2023-01-18T18:32:11.770Z,12.38
2023-01-18T18:34:38.276Z,11.15
2023-01-18T18:37:05.187Z,11.05
2023-01-18T18:39:32.560Z,13.70
2023-01-18T18:41:59.565Z,14.57
2023-01-18T18:44:26.049Z,6.80
2023-01-18T18:46:52.541Z,5.53
2023-01-18T18:49:19.077Z,13.32
2023-01-18T18:51:45.647Z,6.05
2023-01-18T18:54:12.132Z,9.30
2023-01-18T18:56:38.916Z,11.68
2023-01-18T18:59:05.519Z,14.43
2023-01-18T19:01:32.223Z,11.60
2023-01-18T19:03:59.303Z,4.95
2023-01-18T19:06:26.284Z,8.68
2023-01-18T19:08:53.172Z,9.30
2023-01-18T19:11:20.231Z,20.67
2023-01-18T19:13:49.404Z,13.98
2023-01-18T19:16:16.697Z,17.65
2023-01-18T19:18:43.433Z,21.27
2023-01-18T19:21:09.962Z,10.75
2023-01-18T19:23:36.397Z,3.40
2023-01-18T19:26:03.864Z,9.77
2023-01-18T19:28:30.442Z,12.82
2023-01-18T19:31:07.814Z,12.05
2023-01-18T19:33:34.745Z,17.58
2023-01-18T19:36:12.848Z,19.88
2023-01-18T19:38:45.672Z,11.75
2023-01-18T19:41:13.165Z,23.38
2023-01-18T19:43:39.625Z,12.32
2023-01-18T19:46:08.081Z,7.88
2023-01-18T19:48:36.627Z,14.88
2023-01-18T19:51:16.676Z,18.52
2023-01-18T19:53:47.503Z,8.02
2023-01-18T19:56:13.976Z,27.42
2023-01-18T19:58:43.631Z,12.57
2023-01-18T20:01:18.108Z,22.02
2023-01-18T20:03:49.886Z,15.07
2023-01-18T20:06:18.925Z,20.73
2023-01-18T20:08:45.800Z,23.60
2023-01-18T20:11:14.760Z,17.80
2023-01-18T20:13:47.119Z,22.75
2023-01-18T20:16:13.781Z,15.98
2023-01-18T20:18:40.441Z,22.35
2023-01-18T20:21:10.279Z,16.27
2023-01-18T20:23:36.974Z,17.80
2023-01-18T20:26:04.409Z,17.00
2023-01-18T20:28:32.210Z,17.38
2023-01-18T20:31:00.566Z,20.77
2023-01-18T20:33:27.034Z,17.63
2023-01-18T20:35:53.505Z,13.90
2023-01-18T20:38:20.050Z,13.18
2023-01-18T20:40:47.051Z,11.75
2023-01-18T20:43:13.520Z,15.82
2023-01-18T20:45:40.013Z,13.75
2023-01-18T20:48:07.294Z,14.82
2023-01-18T20:50:33.898Z,18.85
2023-01-18T20:53:01.115Z,14.70
2023-01-18T20:55:27.733Z,14.80
2023-01-18T20:57:55.207Z,11.90
2023-01-18T21:00:22.788Z,15.15
2023-01-18T21:02:49.527Z,11.93
2023-01-18T21:05:16.144Z,13.98
2023-01-18T21:07:42.648Z,20.10
2023-01-18T21:10:10.911Z,9.80
2023-01-18T21:12:37.478Z,14.38
2023-01-18T21:15:08.959Z,12.68
2023-01-18T21:17:36.085Z,9.88
2023-01-18T21:20:02.601Z,16.23
2023-01-18T21:22:29.085Z,12.02
2023-01-18T21:24:57.175Z,8.50
2023-01-18T21:27:27.209Z,20.27
2023-01-18T21:29:54.248Z,11.85
2023-01-18T21:32:22.668Z,9.52
2023-01-18T21:34:49.169Z,7.10
2023-01-18T21:37:15.687Z,16.27
2023-01-18T21:39:42.182Z,15.68
2023-01-18T21:42:29.465Z,9.63
2023-01-18T21:45:14.453Z,17.10
2023-01-18T21:47:40.936Z,17.80
2023-01-18T21:50:26.669Z,19.08
2023-01-18T21:53:11.468Z,22.20
2023-01-18T21:55:40.032Z,23.00
2023-01-18T21:58:25.291Z,12.23
2023-01-18T22:00:51.919Z,10.23
2023-01-18T22:03:18.549Z,15.73
2023-01-18T22:05:45.095Z,9.63
2023-01-18T22:08:11.665Z,20.02
2023-01-18T22:10:38.141Z,18.73
2023-01-18T22:13:04.605Z,16.30
2023-01-18T22:15:31.089Z,17.08
2023-01-18T22:17:58.411Z,24.63
2023-01-18T22:20:25.032Z,21.25
2023-01-18T22:22:51.954Z,16.10
2023-01-18T22:25:18.434Z,20.67
2023-01-18T22:27:45.082Z,12.52
2023-01-18T22:30:12.189Z,15.13
2023-01-18T22:32:38.666Z,19.25
2023-01-18T22:35:05.484Z,18.02
2023-01-18T22:37:31.966Z,12.02
2023-01-18T22:39:58.480Z,18.42
2023-01-18T22:42:25.299Z,18.05
2023-01-18T22:44:51.780Z,22.00
2023-01-18T22:47:18.433Z,18.33
2023-01-18T22:49:44.969Z,18.67
2023-01-18T22:52:11.454Z,15.85
2023-01-18T22:54:37.968Z,16.83
2023-01-18T22:57:04.536Z,7.78
2023-01-18T22:59:30.995Z,18.38
2023-01-18T23:01:58.158Z,19.60
2023-01-18T23:04:24.721Z,23.98
2023-01-18T23:06:54.531Z,19.23
2023-01-18T23:09:21.298Z,9.45
2023-01-18T23:11:47.971Z,15.40
2023-01-18T23:14:33.469Z,13.40
2023-01-18T23:17:18.371Z,21.85
2023-01-18T23:19:44.860Z,22.33
2023-01-18T23:22:11.464Z,24.20
2023-01-18T23:24:38.834Z,11.35
2023-01-18T23:27:07.525Z,13.45
2023-01-18T23:29:34.069Z,28.30
2023-01-18T23:32:00.820Z,15.70
2023-01-18T23:34:27.436Z,19.77
2023-01-18T23:36:54.218Z,11.18
2023-01-18T23:39:39.216Z,16.83
2023-01-18T23:42:24.223Z,12.55
2023-01-18T23:45:09.165Z,17.45
2023-01-18T23:47:54.529Z,20.08
2023-01-18T23:50:40.069Z,17.70
2023-01-18T23:55:54.855Z,26.35
2023-01-18T23:58:21.363Z,27.15
